sensor_id;sensor_type;location;lat;lon;timestamp;P1;durP1;ratioP1;P2;durP2;ratioP2
71080;SDS011;58740;50.672;18.690;2023-02-23T00:02:06;28.80;;;12.30;;
71080;SDS011;58740;50.672;18.690;2023-02-23T00:04:35;34.60;;;14.00;;
71080;SDS011;58740;50.672;18.690;2023-02-23T00:07:03;33.60;;;14.80;;
71080;SDS011;58740;50.672;18.690;2023-02-23T00:09:36;35.60;;;16.20;;
71080;SDS011;58740;50.672;18.690;2023-02-23T00:12:05;29.40;;;13.10;;
71080;SDS011;58740;50.672;18.690;2023-02-23T00:14:37;32.00;;;14.70;;
71080;SDS011;58740;50.672;18.690;2023-02-23T00:17:06;32.30;;;15.30;;
71080;SDS011;58740;50.672;18.690;2023-02-23T00:19:41;34.00;;;13.50;;
71080;SDS011;58740;50.672;18.690;2023-02-23T00:22:12;28.20;;;13.50;;
71080;SDS011;58740;50.672;18.690;2023-02-23T00:24:40;29.10;;;12.70;;
71080;SDS011;58740;50.672;18.690;2023-02-23T00:27:09;32.10;;;14.40;;
71080;SDS011;58740;50.672;18.690;2023-02-23T00:29:44;29.80;;;13.00;;
71080;SDS011;58740;50.672;18.690;2023-02-23T00:32:16;26.50;;;12.50;;
71080;SDS011;58740;50.672;18.690;2023-02-23T00:34:47;28.90;;;13.90;;
71080;SDS011;58740;50.672;18.690;2023-02-23T00:37:18;31.20;;;13.50;;
71080;SDS011;58740;50.672;18.690;2023-02-23T00:39:48;24.60;;;11.40;;
71080;SDS011;58740;50.672;18.690;2023-02-23T00:42:16;26.00;;;11.90;;
71080;SDS011;58740;50.672;18.690;2023-02-23T00:44:44;27.00;;;11.30;;
71080;SDS011;58740;50.672;18.690;2023-02-23T00:47:14;30.80;;;10.60;;
71080;SDS011;58740;50.672;18.690;2023-02-23T00:49:42;24.00;;;11.00;;
71080;SDS011;58740;50.672;18.690;2023-02-23T00:52:11;23.30;;;10.30;;
71080;SDS011;58740;50.672;18.690;2023-02-23T00:54:41;22.60;;;10.60;;
71080;SDS011;58740;50.672;18.690;2023-02-23T00:57:08;24.50;;;11.20;;
71080;SDS011;58740;50.672;18.690;2023-02-23T00:59:37;18.40;;;9.30;;
71080;SDS011;58740;50.672;18.690;2023-02-23T01:02:05;23.90;;;10.80;;
71080;SDS011;58740;50.672;18.690;2023-02-23T01:04:32;21.00;;;9.60;;
71080;SDS011;58740;50.672;18.690;2023-02-23T01:07:00;22.20;;;10.40;;
71080;SDS011;58740;50.672;18.690;2023-02-23T01:09:31;21.50;;;10.20;;
71080;SDS011;58740;50.672;18.690;2023-02-23T01:11:59;20.20;;;8.90;;
71080;SDS011;58740;50.672;18.690;2023-02-23T01:14:28;25.10;;;9.60;;
71080;SDS011;58740;50.672;18.690;2023-02-23T01:16:56;22.80;;;9.50;;
71080;SDS011;58740;50.672;18.690;2023-02-23T01:19:24;19.30;;;10.30;;
71080;SDS011;58740;50.672;18.690;2023-02-23T01:21:51;27.00;;;9.80;;
71080;SDS011;58740;50.672;18.690;2023-02-23T01:24:19;19.30;;;9.40;;
71080;SDS011;58740;50.672;18.690;2023-02-23T01:26:47;18.20;;;8.70;;
71080;SDS011;58740;50.672;18.690;2023-02-23T01:29:16;18.60;;;8.10;;
71080;SDS011;58740;50.672;18.690;2023-02-23T01:31:48;21.50;;;9.00;;
71080;SDS011;58740;50.672;18.690;2023-02-23T01:34:19;19.00;;;7.70;;
71080;SDS011;58740;50.672;18.690;2023-02-23T01:36:50;17.00;;;7.50;;
71080;SDS011;58740;50.672;18.690;2023-02-23T01:39:19;18.80;;;8.60;;
71080;SDS011;58740;50.672;18.690;2023-02-23T01:41:47;17.80;;;6.70;;
71080;SDS011;58740;50.672;18.690;2023-02-23T01:46:46;18.30;;;8.10;;
71080;SDS011;58740;50.672;18.690;2023-02-23T01:49:23;16.20;;;7.60;;
71080;SDS011;58740;50.672;18.690;2023-02-23T01:52:06;17.10;;;8.50;;
71080;SDS011;58740;50.672;18.690;2023-02-23T01:54:45;12.00;;;5.90;;
71080;SDS011;58740;50.672;18.690;2023-02-23T01:57:21;12.90;;;6.40;;
71080;SDS011;58740;50.672;18.690;2023-02-23T01:59:51;11.40;;;6.10;;
71080;SDS011;58740;50.672;18.690;2023-02-23T02:02:22;12.70;;;5.90;;
71080;SDS011;58740;50.672;18.690;2023-02-23T02:05:00;14.50;;;6.50;;
71080;SDS011;58740;50.672;18.690;2023-02-23T02:07:31;14.10;;;6.90;;
71080;SDS011;58740;50.672;18.690;2023-02-23T02:10:02;16.10;;;7.00;;
71080;SDS011;58740;50.672;18.690;2023-02-23T02:12:52;18.50;;;6.00;;
71080;SDS011;58740;50.672;18.690;2023-02-23T02:15:25;17.00;;;5.90;;
71080;SDS011;58740;50.672;18.690;2023-02-23T02:21:15;12.90;;;6.30;;
71080;SDS011;58740;50.672;18.690;2023-02-23T02:27:11;16.50;;;6.80;;
71080;SDS011;58740;50.672;18.690;2023-02-23T02:39:27;13.00;;;5.40;;
71080;SDS011;58740;50.672;18.690;2023-02-23T02:51:00;13.60;;;6.10;;
71080;SDS011;58740;50.672;18.690;2023-02-23T02:54:02;8.60;;;4.00;;
71080;SDS011;58740;50.672;18.690;2023-02-23T02:56:40;9.90;;;4.70;;
71080;SDS011;58740;50.672;18.690;2023-02-23T02:59:15;9.50;;;4.20;;
71080;SDS011;58740;50.672;18.690;2023-02-23T03:02:05;12.70;;;5.20;;
71080;SDS011;58740;50.672;18.690;2023-02-23T03:04:52;16.60;;;6.40;;
71080;SDS011;58740;50.672;18.690;2023-02-23T03:08:09;15.20;;;6.90;;
71080;SDS011;58740;50.672;18.690;2023-02-23T03:11:17;13.20;;;6.00;;
71080;SDS011;58740;50.672;18.690;2023-02-23T03:14:32;17.10;;;6.00;;
71080;SDS011;58740;50.672;18.690;2023-02-23T03:17:32;13.50;;;6.10;;
71080;SDS011;58740;50.672;18.690;2023-02-23T03:20:51;16.10;;;5.00;;
71080;SDS011;58740;50.672;18.690;2023-02-23T03:24:14;11.10;;;4.90;;
71080;SDS011;58740;50.672;18.690;2023-02-23T03:27:23;11.50;;;4.60;;
71080;SDS011;58740;50.672;18.690;2023-02-23T03:30:47;16.00;;;5.90;;
71080;SDS011;58740;50.672;18.690;2023-02-23T03:40:30;15.60;;;5.80;;
71080;SDS011;58740;50.672;18.690;2023-02-23T03:43:32;17.00;;;6.10;;
71080;SDS011;58740;50.672;18.690;2023-02-23T03:46:26;15.40;;;5.70;;
71080;SDS011;58740;50.672;18.690;2023-02-23T03:49:17;15.90;;;7.30;;
71080;SDS011;58740;50.672;18.690;2023-02-23T03:52:17;11.70;;;5.60;;
71080;SDS011;58740;50.672;18.690;2023-02-23T03:55:13;14.70;;;6.30;;
71080;SDS011;58740;50.672;18.690;2023-02-23T03:58:06;16.00;;;6.80;;
71080;SDS011;58740;50.672;18.690;2023-02-23T04:01:01;12.30;;;5.00;;
71080;SDS011;58740;50.672;18.690;2023-02-23T04:03:50;13.50;;;5.80;;
71080;SDS011;58740;50.672;18.690;2023-02-23T04:06:43;9.70;;;4.90;;
71080;SDS011;58740;50.672;18.690;2023-02-23T04:09:32;16.30;;;6.40;;
71080;SDS011;58740;50.672;18.690;2023-02-23T04:12:43;15.50;;;5.70;;
71080;SDS011;58740;50.672;18.690;2023-02-23T04:15:42;17.50;;;6.50;;
71080;SDS011;58740;50.672;18.690;2023-02-23T04:18:19;16.60;;;6.30;;
71080;SDS011;58740;50.672;18.690;2023-02-23T04:20:50;12.50;;;5.70;;
71080;SDS011;58740;50.672;18.690;2023-02-23T04:23:19;15.60;;;6.60;;
71080;SDS011;58740;50.672;18.690;2023-02-23T04:25:50;13.20;;;5.70;;
71080;SDS011;58740;50.672;18.690;2023-02-23T04:28:20;13.70;;;5.80;;
71080;SDS011;58740;50.672;18.690;2023-02-23T04:30:49;16.90;;;7.20;;
71080;SDS011;58740;50.672;18.690;2023-02-23T04:33:19;11.00;;;5.00;;
71080;SDS011;58740;50.672;18.690;2023-02-23T04:35:51;13.70;;;4.90;;
71080;SDS011;58740;50.672;18.690;2023-02-23T04:38:21;11.90;;;5.40;;
71080;SDS011;58740;50.672;18.690;2023-02-23T04:40:49;16.60;;;6.70;;
71080;SDS011;58740;50.672;18.690;2023-02-23T04:43:17;14.80;;;6.50;;
71080;SDS011;58740;50.672;18.690;2023-02-23T04:45:45;12.30;;;5.80;;
71080;SDS011;58740;50.672;18.690;2023-02-23T04:48:12;16.80;;;7.00;;
71080;SDS011;58740;50.672;18.690;2023-02-23T04:50:40;16.00;;;6.90;;
71080;SDS011;58740;50.672;18.690;2023-02-23T04:53:08;15.40;;;6.20;;
71080;SDS011;58740;50.672;18.690;2023-02-23T04:55:36;14.90;;;7.20;;
71080;SDS011;58740;50.672;18.690;2023-02-23T04:58:04;15.20;;;6.90;;
71080;SDS011;58740;50.672;18.690;2023-02-23T05:00:32;13.90;;;6.70;;
71080;SDS011;58740;50.672;18.690;2023-02-23T05:03:00;15.30;;;6.10;;
71080;SDS011;58740;50.672;18.690;2023-02-23T05:05:29;7.70;;;3.70;;
71080;SDS011;58740;50.672;18.690;2023-02-23T05:07:57;16.60;;;6.10;;
71080;SDS011;58740;50.672;18.690;2023-02-23T05:10:24;15.90;;;6.90;;
71080;SDS011;58740;50.672;18.690;2023-02-23T05:12:52;17.10;;;7.60;;
71080;SDS011;58740;50.672;18.690;2023-02-23T05:15:20;16.10;;;6.60;;
71080;SDS011;58740;50.672;18.690;2023-02-23T05:17:48;16.50;;;7.50;;
71080;SDS011;58740;50.672;18.690;2023-02-23T05:20:15;17.90;;;7.00;;
71080;SDS011;58740;50.672;18.690;2023-02-23T05:22:43;14.30;;;6.50;;
71080;SDS011;58740;50.672;18.690;2023-02-23T05:25:11;15.80;;;7.00;;
71080;SDS011;58740;50.672;18.690;2023-02-23T05:27:39;12.80;;;5.20;;
71080;SDS011;58740;50.672;18.690;2023-02-23T05:30:07;14.00;;;6.20;;
71080;SDS011;58740;50.672;18.690;2023-02-23T05:32:36;14.60;;;7.00;;
71080;SDS011;58740;50.672;18.690;2023-02-23T05:35:05;16.30;;;6.70;;
71080;SDS011;58740;50.672;18.690;2023-02-23T05:37:33;17.10;;;7.30;;
71080;SDS011;58740;50.672;18.690;2023-02-23T05:40:02;16.00;;;7.20;;
71080;SDS011;58740;50.672;18.690;2023-02-23T05:42:29;15.50;;;7.30;;
71080;SDS011;58740;50.672;18.690;2023-02-23T05:44:57;19.60;;;7.90;;
71080;SDS011;58740;50.672;18.690;2023-02-23T05:47:25;19.10;;;7.20;;
71080;SDS011;58740;50.672;18.690;2023-02-23T05:49:53;16.10;;;7.60;;
71080;SDS011;58740;50.672;18.690;2023-02-23T05:52:21;13.70;;;6.80;;
71080;SDS011;58740;50.672;18.690;2023-02-23T05:54:49;16.00;;;7.30;;
71080;SDS011;58740;50.672;18.690;2023-02-23T05:57:17;18.00;;;8.70;;
71080;SDS011;58740;50.672;18.690;2023-02-23T05:59:44;15.40;;;6.70;;
71080;SDS011;58740;50.672;18.690;2023-02-23T06:02:12;19.50;;;7.80;;
71080;SDS011;58740;50.672;18.690;2023-02-23T06:04:40;18.90;;;8.50;;
71080;SDS011;58740;50.672;18.690;2023-02-23T06:07:08;22.10;;;8.90;;
71080;SDS011;58740;50.672;18.690;2023-02-23T06:09:36;22.10;;;10.00;;
71080;SDS011;58740;50.672;18.690;2023-02-23T06:12:04;21.20;;;10.10;;
71080;SDS011;58740;50.672;18.690;2023-02-23T06:14:32;25.30;;;9.80;;
71080;SDS011;58740;50.672;18.690;2023-02-23T06:17:00;21.30;;;9.10;;
71080;SDS011;58740;50.672;18.690;2023-02-23T06:19:27;19.70;;;8.90;;
71080;SDS011;58740;50.672;18.690;2023-02-23T06:21:56;15.20;;;8.40;;
71080;SDS011;58740;50.672;18.690;2023-02-23T06:24:24;19.20;;;8.60;;
71080;SDS011;58740;50.672;18.690;2023-02-23T06:26:51;18.60;;;9.60;;
71080;SDS011;58740;50.672;18.690;2023-02-23T06:29:19;19.60;;;8.90;;
71080;SDS011;58740;50.672;18.690;2023-02-23T06:31:47;17.50;;;8.30;;
71080;SDS011;58740;50.672;18.690;2023-02-23T06:34:15;13.90;;;7.50;;
71080;SDS011;58740;50.672;18.690;2023-02-23T06:36:43;17.30;;;7.60;;
71080;SDS011;58740;50.672;18.690;2023-02-23T06:39:11;22.00;;;9.00;;
71080;SDS011;58740;50.672;18.690;2023-02-23T06:41:39;19.60;;;9.30;;
71080;SDS011;58740;50.672;18.690;2023-02-23T06:44:07;23.30;;;8.20;;
71080;SDS011;58740;50.672;18.690;2023-02-23T06:46:34;12.80;;;5.80;;
71080;SDS011;58740;50.672;18.690;2023-02-23T06:49:03;18.50;;;7.00;;
71080;SDS011;58740;50.672;18.690;2023-02-23T06:51:31;24.40;;;9.50;;
71080;SDS011;58740;50.672;18.690;2023-02-23T06:53:58;23.10;;;8.70;;
71080;SDS011;58740;50.672;18.690;2023-02-23T06:56:26;16.50;;;7.70;;
71080;SDS011;58740;50.672;18.690;2023-02-23T06:58:54;18.80;;;7.40;;
71080;SDS011;58740;50.672;18.690;2023-02-23T07:01:22;18.50;;;8.70;;
71080;SDS011;58740;50.672;18.690;2023-02-23T07:03:49;24.10;;;10.00;;
71080;SDS011;58740;50.672;18.690;2023-02-23T07:06:17;18.80;;;8.70;;
71080;SDS011;58740;50.672;18.690;2023-02-23T07:08:45;20.30;;;9.80;;
71080;SDS011;58740;50.672;18.690;2023-02-23T07:11:15;21.20;;;10.70;;
71080;SDS011;58740;50.672;18.690;2023-02-23T07:13:45;23.00;;;9.40;;
71080;SDS011;58740;50.672;18.690;2023-02-23T07:16:13;17.00;;;8.80;;
71080;SDS011;58740;50.672;18.690;2023-02-23T07:18:43;22.70;;;10.00;;
71080;SDS011;58740;50.672;18.690;2023-02-23T07:21:10;20.70;;;10.10;;
71080;SDS011;58740;50.672;18.690;2023-02-23T07:23:38;17.50;;;8.80;;
71080;SDS011;58740;50.672;18.690;2023-02-23T07:26:06;16.30;;;6.80;;
71080;SDS011;58740;50.672;18.690;2023-02-23T07:28:34;19.20;;;9.00;;
71080;SDS011;58740;50.672;18.690;2023-02-23T07:31:01;20.20;;;8.10;;
71080;SDS011;58740;50.672;18.690;2023-02-23T07:33:29;20.90;;;9.60;;
71080;SDS011;58740;50.672;18.690;2023-02-23T07:35:59;33.90;;;16.00;;
71080;SDS011;58740;50.672;18.690;2023-02-23T07:38:26;25.20;;;13.20;;
71080;SDS011;58740;50.672;18.690;2023-02-23T07:40:55;28.40;;;12.20;;
71080;SDS011;58740;50.672;18.690;2023-02-23T07:43:23;27.30;;;12.00;;
71080;SDS011;58740;50.672;18.690;2023-02-23T07:45:51;26.60;;;12.20;;
71080;SDS011;58740;50.672;18.690;2023-02-23T07:48:19;28.00;;;13.20;;
71080;SDS011;58740;50.672;18.690;2023-02-23T07:50:48;29.20;;;12.60;;
71080;SDS011;58740;50.672;18.690;2023-02-23T07:53:15;15.90;;;8.20;;
71080;SDS011;58740;50.672;18.690;2023-02-23T07:55:43;30.40;;;13.10;;
71080;SDS011;58740;50.672;18.690;2023-02-23T07:58:12;27.90;;;13.10;;
71080;SDS011;58740;50.672;18.690;2023-02-23T08:00:39;22.00;;;10.70;;
71080;SDS011;58740;50.672;18.690;2023-02-23T08:03:07;29.10;;;15.40;;
71080;SDS011;58740;50.672;18.690;2023-02-23T08:05:35;32.30;;;15.80;;
71080;SDS011;58740;50.672;18.690;2023-02-23T08:08:06;25.70;;;12.30;;
71080;SDS011;58740;50.672;18.690;2023-02-23T08:10:34;22.70;;;11.60;;
71080;SDS011;58740;50.672;18.690;2023-02-23T08:13:02;30.20;;;12.50;;
71080;SDS011;58740;50.672;18.690;2023-02-23T08:15:31;30.80;;;12.20;;
71080;SDS011;58740;50.672;18.690;2023-02-23T08:17:59;23.10;;;12.30;;
71080;SDS011;58740;50.672;18.690;2023-02-23T08:20:27;23.10;;;12.00;;
71080;SDS011;58740;50.672;18.690;2023-02-23T08:22:56;27.00;;;12.70;;
71080;SDS011;58740;50.672;18.690;2023-02-23T08:25:25;26.30;;;11.40;;
71080;SDS011;58740;50.672;18.690;2023-02-23T08:27:53;14.50;;;6.60;;
71080;SDS011;58740;50.672;18.690;2023-02-23T08:30:22;26.20;;;11.80;;
71080;SDS011;58740;50.672;18.690;2023-02-23T08:32:51;20.60;;;9.90;;
71080;SDS011;58740;50.672;18.690;2023-02-23T08:35:19;24.40;;;11.50;;
71080;SDS011;58740;50.672;18.690;2023-02-23T08:37:46;20.40;;;9.40;;
71080;SDS011;58740;50.672;18.690;2023-02-23T08:40:14;29.40;;;13.80;;
71080;SDS011;58740;50.672;18.690;2023-02-23T08:42:44;28.10;;;12.50;;
71080;SDS011;58740;50.672;18.690;2023-02-23T08:45:13;29.30;;;12.90;;
71080;SDS011;58740;50.672;18.690;2023-02-23T08:47:41;30.30;;;13.70;;
71080;SDS011;58740;50.672;18.690;2023-02-23T08:50:10;31.50;;;13.40;;
71080;SDS011;58740;50.672;18.690;2023-02-23T08:52:39;28.50;;;13.00;;
71080;SDS011;58740;50.672;18.690;2023-02-23T08:55:09;27.10;;;12.40;;
71080;SDS011;58740;50.672;18.690;2023-02-23T08:57:38;31.70;;;14.00;;
71080;SDS011;58740;50.672;18.690;2023-02-23T09:00:07;25.30;;;12.00;;
71080;SDS011;58740;50.672;18.690;2023-02-23T09:02:44;29.90;;;12.20;;
71080;SDS011;58740;50.672;18.690;2023-02-23T09:05:15;29.80;;;11.10;;
71080;SDS011;58740;50.672;18.690;2023-02-23T09:07:45;25.50;;;12.10;;
71080;SDS011;58740;50.672;18.690;2023-02-23T09:10:16;31.00;;;13.40;;
71080;SDS011;58740;50.672;18.690;2023-02-23T09:12:51;29.70;;;12.30;;
71080;SDS011;58740;50.672;18.690;2023-02-23T09:15:20;33.20;;;13.80;;
71080;SDS011;58740;50.672;18.690;2023-02-23T09:17:48;33.80;;;12.00;;
71080;SDS011;58740;50.672;18.690;2023-02-23T09:20:16;33.70;;;13.80;;
71080;SDS011;58740;50.672;18.690;2023-02-23T09:22:44;24.00;;;11.00;;
71080;SDS011;58740;50.672;18.690;2023-02-23T09:25:20;29.40;;;13.00;;
71080;SDS011;58740;50.672;18.690;2023-02-23T09:27:52;36.70;;;15.50;;
71080;SDS011;58740;50.672;18.690;2023-02-23T09:30:22;30.40;;;12.50;;
71080;SDS011;58740;50.672;18.690;2023-02-23T09:32:51;18.40;;;8.70;;
71080;SDS011;58740;50.672;18.690;2023-02-23T09:35:22;23.50;;;11.90;;
71080;SDS011;58740;50.672;18.690;2023-02-23T09:37:53;30.00;;;13.40;;
71080;SDS011;58740;50.672;18.690;2023-02-23T09:40:28;27.30;;;12.30;;
71080;SDS011;58740;50.672;18.690;2023-02-23T09:46:25;26.50;;;12.60;;
71080;SDS011;58740;50.672;18.690;2023-02-23T09:49:10;27.90;;;13.90;;
71080;SDS011;58740;50.672;18.690;2023-02-23T09:51:48;26.90;;;13.20;;
71080;SDS011;58740;50.672;18.690;2023-02-23T09:54:27;25.70;;;12.70;;
71080;SDS011;58740;50.672;18.690;2023-02-23T09:57:02;21.80;;;9.90;;
71080;SDS011;58740;50.672;18.690;2023-02-23T09:59:38;24.70;;;10.60;;
71080;SDS011;58740;50.672;18.690;2023-02-23T10:05:07;25.60;;;11.70;;
71080;SDS011;58740;50.672;18.690;2023-02-23T10:07:54;19.70;;;9.50;;
71080;SDS011;58740;50.672;18.690;2023-02-23T10:10:43;20.50;;;8.50;;
71080;SDS011;58740;50.672;18.690;2023-02-23T10:22:26;22.40;;;9.30;;
71080;SDS011;58740;50.672;18.690;2023-02-23T10:25:45;28.10;;;12.00;;
71080;SDS011;58740;50.672;18.690;2023-02-23T10:27:54;22.40;;;10.00;;
71080;SDS011;58740;50.672;18.690;2023-02-23T10:30:27;24.10;;;10.50;;
71080;SDS011;58740;50.672;18.690;2023-02-23T10:33:03;23.10;;;9.00;;
71080;SDS011;58740;50.672;18.690;2023-02-23T10:35:40;22.10;;;9.70;;
71080;SDS011;58740;50.672;18.690;2023-02-23T10:38:13;18.90;;;8.10;;
71080;SDS011;58740;50.672;18.690;2023-02-23T10:40:48;23.00;;;9.20;;
71080;SDS011;58740;50.672;18.690;2023-02-23T10:43:17;20.50;;;10.60;;
71080;SDS011;58740;50.672;18.690;2023-02-23T10:45:50;24.90;;;9.60;;
71080;SDS011;58740;50.672;18.690;2023-02-23T10:48:25;24.00;;;9.20;;
71080;SDS011;58740;50.672;18.690;2023-02-23T10:50:56;25.20;;;9.70;;
71080;SDS011;58740;50.672;18.690;2023-02-23T10:53:35;23.00;;;9.20;;
71080;SDS011;58740;50.672;18.690;2023-02-23T10:58:51;15.00;;;6.20;;
71080;SDS011;58740;50.672;18.690;2023-02-23T11:01:34;15.60;;;7.30;;
71080;SDS011;58740;50.672;18.690;2023-02-23T11:04:48;19.60;;;7.80;;
71080;SDS011;58740;50.672;18.690;2023-02-23T11:07:23;17.70;;;8.10;;
71080;SDS011;58740;50.672;18.690;2023-02-23T11:09:59;15.90;;;7.10;;
71080;SDS011;58740;50.672;18.690;2023-02-23T11:12:51;23.90;;;9.00;;
71080;SDS011;58740;50.672;18.690;2023-02-23T11:15:30;21.00;;;8.90;;
71080;SDS011;58740;50.672;18.690;2023-02-23T11:18:20;20.30;;;8.90;;
71080;SDS011;58740;50.672;18.690;2023-02-23T11:20:50;21.50;;;8.60;;
71080;SDS011;58740;50.672;18.690;2023-02-23T11:23:25;16.70;;;8.60;;
71080;SDS011;58740;50.672;18.690;2023-02-23T11:26:03;16.70;;;7.10;;
71080;SDS011;58740;50.672;18.690;2023-02-23T11:28:53;18.50;;;8.30;;
71080;SDS011;58740;50.672;18.690;2023-02-23T11:31:34;14.30;;;6.50;;
71080;SDS011;58740;50.672;18.690;2023-02-23T11:34:04;15.70;;;7.00;;
71080;SDS011;58740;50.672;18.690;2023-02-23T11:36:35;15.20;;;7.00;;
71080;SDS011;58740;50.672;18.690;2023-02-23T11:39:05;17.00;;;6.50;;
71080;SDS011;58740;50.672;18.690;2023-02-23T11:42:14;19.20;;;7.80;;
71080;SDS011;58740;50.672;18.690;2023-02-23T11:45:36;14.00;;;6.90;;
71080;SDS011;58740;50.672;18.690;2023-02-23T11:47:52;16.70;;;7.40;;
71080;SDS011;58740;50.672;18.690;2023-02-23T11:50:28;19.90;;;8.50;;
71080;SDS011;58740;50.672;18.690;2023-02-23T11:55:35;15.30;;;6.70;;
71080;SDS011;58740;50.672;18.690;2023-02-23T12:01:11;18.60;;;8.40;;
71080;SDS011;58740;50.672;18.690;2023-02-23T12:03:47;17.30;;;8.20;;
71080;SDS011;58740;50.672;18.690;2023-02-23T12:06:45;15.40;;;7.60;;
71080;SDS011;58740;50.672;18.690;2023-02-23T12:09:28;18.80;;;9.20;;
71080;SDS011;58740;50.672;18.690;2023-02-23T12:12:11;19.30;;;8.50;;
71080;SDS011;58740;50.672;18.690;2023-02-23T12:14:55;17.00;;;8.30;;
71080;SDS011;58740;50.672;18.690;2023-02-23T12:17:39;19.80;;;7.30;;
71080;SDS011;58740;50.672;18.690;2023-02-23T12:20:25;20.80;;;10.40;;
71080;SDS011;58740;50.672;18.690;2023-02-23T12:23:17;19.90;;;8.90;;
71080;SDS011;58740;50.672;18.690;2023-02-23T12:26:04;14.40;;;7.00;;
71080;SDS011;58740;50.672;18.690;2023-02-23T12:28:49;15.10;;;7.00;;
71080;SDS011;58740;50.672;18.690;2023-02-23T12:31:46;20.40;;;8.30;;
71080;SDS011;58740;50.672;18.690;2023-02-23T12:34:32;25.30;;;11.30;;
71080;SDS011;58740;50.672;18.690;2023-02-23T12:37:17;25.00;;;11.60;;
71080;SDS011;58740;50.672;18.690;2023-02-23T12:40:23;23.30;;;10.60;;
71080;SDS011;58740;50.672;18.690;2023-02-23T12:43:06;22.40;;;9.40;;
71080;SDS011;58740;50.672;18.690;2023-02-23T12:45:49;22.60;;;11.20;;
71080;SDS011;58740;50.672;18.690;2023-02-23T12:48:55;22.40;;;12.50;;
71080;SDS011;58740;50.672;18.690;2023-02-23T12:51:32;17.90;;;8.60;;
71080;SDS011;58740;50.672;18.690;2023-02-23T12:54:08;20.40;;;9.00;;
71080;SDS011;58740;50.672;18.690;2023-02-23T12:57:06;23.50;;;10.60;;
71080;SDS011;58740;50.672;18.690;2023-02-23T13:06:22;21.00;;;9.20;;
71080;SDS011;58740;50.672;18.690;2023-02-23T13:12:06;36.20;;;17.00;;
71080;SDS011;58740;50.672;18.690;2023-02-23T13:15:22;24.00;;;12.80;;
71080;SDS011;58740;50.672;18.690;2023-02-23T13:18:23;24.80;;;12.40;;
71080;SDS011;58740;50.672;18.690;2023-02-23T13:21:07;19.90;;;10.50;;
71080;SDS011;58740;50.672;18.690;2023-02-23T13:24:07;28.50;;;12.40;;
71080;SDS011;58740;50.672;18.690;2023-02-23T13:27:33;17.50;;;9.10;;
71080;SDS011;58740;50.672;18.690;2023-02-23T13:30:08;23.50;;;11.40;;
71080;SDS011;58740;50.672;18.690;2023-02-23T13:32:38;32.40;;;15.40;;
71080;SDS011;58740;50.672;18.690;2023-02-23T13:35:17;25.40;;;12.60;;
71080;SDS011;58740;50.672;18.690;2023-02-23T13:38:08;24.30;;;12.50;;
71080;SDS011;58740;50.672;18.690;2023-02-23T13:43:35;21.00;;;10.40;;
71080;SDS011;58740;50.672;18.690;2023-02-23T13:46:23;27.20;;;13.10;;
71080;SDS011;58740;50.672;18.690;2023-02-23T13:52:17;38.00;;;16.70;;
71080;SDS011;58740;50.672;18.690;2023-02-23T13:54:54;32.30;;;14.90;;
71080;SDS011;58740;50.672;18.690;2023-02-23T13:57:25;30.80;;;13.80;;
71080;SDS011;58740;50.672;18.690;2023-02-23T13:59:54;25.80;;;11.70;;
71080;SDS011;58740;50.672;18.690;2023-02-23T14:02:37;28.60;;;12.50;;
71080;SDS011;58740;50.672;18.690;2023-02-23T14:05:15;29.90;;;13.40;;
71080;SDS011;58740;50.672;18.690;2023-02-23T14:07:51;22.30;;;11.70;;
71080;SDS011;58740;50.672;18.690;2023-02-23T14:10:40;24.40;;;12.90;;
71080;SDS011;58740;50.672;18.690;2023-02-23T14:15:47;39.80;;;18.40;;
71080;SDS011;58740;50.672;18.690;2023-02-23T14:21:01;32.70;;;15.90;;
71080;SDS011;58740;50.672;18.690;2023-02-23T14:23:49;26.50;;;12.80;;
71080;SDS011;58740;50.672;18.690;2023-02-23T14:34:58;30.00;;;12.30;;
71080;SDS011;58740;50.672;18.690;2023-02-23T14:40:12;28.90;;;12.20;;
71080;SDS011;58740;50.672;18.690;2023-02-23T14:42:50;22.90;;;12.80;;
71080;SDS011;58740;50.672;18.690;2023-02-23T14:45:28;22.20;;;13.30;;
71080;SDS011;58740;50.672;18.690;2023-02-23T14:48:02;26.70;;;14.10;;
71080;SDS011;58740;50.672;18.690;2023-02-23T14:50:34;34.80;;;16.00;;
71080;SDS011;58740;50.672;18.690;2023-02-23T14:53:09;28.20;;;13.70;;
71080;SDS011;58740;50.672;18.690;2023-02-23T14:55:44;29.70;;;14.80;;
71080;SDS011;58740;50.672;18.690;2023-02-23T14:58:27;26.70;;;13.40;;
71080;SDS011;58740;50.672;18.690;2023-02-23T15:00:57;26.80;;;12.50;;
71080;SDS011;58740;50.672;18.690;2023-02-23T15:03:26;27.50;;;13.40;;
71080;SDS011;58740;50.672;18.690;2023-02-23T15:06:00;23.00;;;11.90;;
71080;SDS011;58740;50.672;18.690;2023-02-23T15:08:29;24.30;;;12.70;;
71080;SDS011;58740;50.672;18.690;2023-02-23T15:11:10;24.40;;;10.90;;
71080;SDS011;58740;50.672;18.690;2023-02-23T15:13:44;22.20;;;11.10;;
71080;SDS011;58740;50.672;18.690;2023-02-23T15:16:35;25.00;;;11.10;;
71080;SDS011;58740;50.672;18.690;2023-02-23T15:19:04;20.40;;;11.00;;
71080;SDS011;58740;50.672;18.690;2023-02-23T15:21:34;24.40;;;11.80;;
71080;SDS011;58740;50.672;18.690;2023-02-23T15:24:10;29.80;;;15.20;;
71080;SDS011;58740;50.672;18.690;2023-02-23T15:26:40;33.00;;;13.50;;
71080;SDS011;58740;50.672;18.690;2023-02-23T15:29:19;36.30;;;15.40;;
71080;SDS011;58740;50.672;18.690;2023-02-23T15:31:53;32.80;;;16.10;;
71080;SDS011;58740;50.672;18.690;2023-02-23T15:34:27;33.00;;;17.10;;
71080;SDS011;58740;50.672;18.690;2023-02-23T15:37:00;39.50;;;18.10;;
71080;SDS011;58740;50.672;18.690;2023-02-23T15:39:36;33.90;;;16.00;;
71080;SDS011;58740;50.672;18.690;2023-02-23T15:42:13;36.20;;;17.10;;
71080;SDS011;58740;50.672;18.690;2023-02-23T15:44:43;38.80;;;20.10;;
71080;SDS011;58740;50.672;18.690;2023-02-23T15:47:19;37.70;;;20.20;;
71080;SDS011;58740;50.672;18.690;2023-02-23T15:50:21;36.10;;;19.90;;
71080;SDS011;58740;50.672;18.690;2023-02-23T15:53:09;32.70;;;15.70;;
71080;SDS011;58740;50.672;18.690;2023-02-23T15:55:47;29.30;;;16.80;;
71080;SDS011;58740;50.672;18.690;2023-02-23T15:58:25;38.30;;;18.90;;
71080;SDS011;58740;50.672;18.690;2023-02-23T16:00:58;35.70;;;19.10;;
71080;SDS011;58740;50.672;18.690;2023-02-23T16:03:35;36.30;;;19.20;;
71080;SDS011;58740;50.672;18.690;2023-02-23T16:06:07;31.90;;;16.70;;
71080;SDS011;58740;50.672;18.690;2023-02-23T16:08:57;45.00;;;20.80;;
71080;SDS011;58740;50.672;18.690;2023-02-23T16:11:31;44.10;;;20.90;;
71080;SDS011;58740;50.672;18.690;2023-02-23T16:14:03;53.80;;;25.80;;
71080;SDS011;58740;50.672;18.690;2023-02-23T16:16:33;55.10;;;26.60;;
71080;SDS011;58740;50.672;18.690;2023-02-23T16:19:02;54.40;;;24.90;;
71080;SDS011;58740;50.672;18.690;2023-02-23T16:21:31;58.10;;;27.70;;
71080;SDS011;58740;50.672;18.690;2023-02-23T16:24:06;52.80;;;26.60;;
71080;SDS011;58740;50.672;18.690;2023-02-23T16:26:44;56.30;;;28.20;;
71080;SDS011;58740;50.672;18.690;2023-02-23T16:29:35;60.00;;;29.20;;
71080;SDS011;58740;50.672;18.690;2023-02-23T16:32:19;52.50;;;24.50;;
71080;SDS011;58740;50.672;18.690;2023-02-23T16:35:00;47.70;;;21.10;;
71080;SDS011;58740;50.672;18.690;2023-02-23T16:37:54;38.00;;;18.60;;